sensor_id;sensor_type;location;lat;lon;timestamp;P1;durP1;ratioP1;P2;durP2;ratioP2
14923;SDS011;7554;43.600;1.480;2023-06-24T00:01:17;6.10;;;4.10;;
14923;SDS011;7554;43.600;1.480;2023-06-24T00:03:45;7.47;;;4.57;;
14923;SDS011;7554;43.600;1.480;2023-06-24T00:06:13;5.67;;;4.03;;
14923;SDS011;7554;43.600;1.480;2023-06-24T00:08:43;6.40;;;3.80;;
14923;SDS011;7554;43.600;1.480;2023-06-24T00:11:12;8.23;;;4.00;;
14923;SDS011;7554;43.600;1.480;2023-06-24T00:13:39;4.73;;;4.00;;
14923;SDS011;7554;43.600;1.480;2023-06-24T00:16:07;5.00;;;3.97;;
14923;SDS011;7554;43.600;1.480;2023-06-24T00:18:35;6.20;;;4.47;;
14923;SDS011;7554;43.600;1.480;2023-06-24T00:21:06;5.33;;;4.13;;
14923;SDS011;7554;43.600;1.480;2023-06-24T00:23:33;5.07;;;4.43;;
14923;SDS011;7554;43.600;1.480;2023-06-24T00:26:00;5.97;;;3.90;;
14923;SDS011;7554;43.600;1.480;2023-06-24T00:28:29;6.80;;;4.43;;
14923;SDS011;7554;43.600;1.480;2023-06-24T00:30:57;5.63;;;4.27;;
14923;SDS011;7554;43.600;1.480;2023-06-24T00:33:24;7.73;;;4.60;;
14923;SDS011;7554;43.600;1.480;2023-06-24T00:35:51;5.73;;;4.60;;
14923;SDS011;7554;43.600;1.480;2023-06-24T00:38:20;6.33;;;4.50;;
14923;SDS011;7554;43.600;1.480;2023-06-24T00:40:47;5.97;;;4.47;;
14923;SDS011;7554;43.600;1.480;2023-06-24T00:43:14;5.20;;;4.47;;
14923;SDS011;7554;43.600;1.480;2023-06-24T00:45:43;7.33;;;4.77;;
14923;SDS011;7554;43.600;1.480;2023-06-24T00:48:14;6.13;;;4.40;;
14923;SDS011;7554;43.600;1.480;2023-06-24T00:50:41;5.43;;;4.60;;
14923;SDS011;7554;43.600;1.480;2023-06-24T00:53:10;4.83;;;4.10;;
14923;SDS011;7554;43.600;1.480;2023-06-24T00:55:38;5.03;;;4.17;;
14923;SDS011;7554;43.600;1.480;2023-06-24T00:58:05;4.73;;;3.90;;
14923;SDS011;7554;43.600;1.480;2023-06-24T01:00:33;5.67;;;4.40;;
14923;SDS011;7554;43.600;1.480;2023-06-24T01:03:02;8.70;;;4.20;;
14923;SDS011;7554;43.600;1.480;2023-06-24T01:05:30;6.17;;;4.27;;
14923;SDS011;7554;43.600;1.480;2023-06-24T01:08:00;5.10;;;4.33;;
14923;SDS011;7554;43.600;1.480;2023-06-24T01:10:28;6.27;;;4.07;;
14923;SDS011;7554;43.600;1.480;2023-06-24T01:12:56;7.00;;;4.50;;
14923;SDS011;7554;43.600;1.480;2023-06-24T01:15:23;5.30;;;4.33;;
14923;SDS011;7554;43.600;1.480;2023-06-24T01:17:54;4.67;;;4.13;;
14923;SDS011;7554;43.600;1.480;2023-06-24T01:20:30;10.20;;;5.17;;
14923;SDS011;7554;43.600;1.480;2023-06-24T01:23:06;7.03;;;4.37;;
14923;SDS011;7554;43.600;1.480;2023-06-24T01:31:44;5.23;;;4.13;;
14923;SDS011;7554;43.600;1.480;2023-06-24T01:34:17;7.83;;;4.87;;
14923;SDS011;7554;43.600;1.480;2023-06-24T01:36:53;7.13;;;4.77;;
14923;SDS011;7554;43.600;1.480;2023-06-24T01:39:25;5.10;;;4.37;;
14923;SDS011;7554;43.600;1.480;2023-06-24T01:41:56;6.23;;;4.40;;
14923;SDS011;7554;43.600;1.480;2023-06-24T01:44:27;4.70;;;3.97;;
14923;SDS011;7554;43.600;1.480;2023-06-24T01:46:57;5.50;;;4.47;;
14923;SDS011;7554;43.600;1.480;2023-06-24T01:49:27;6.67;;;4.30;;
14923;SDS011;7554;43.600;1.480;2023-06-24T01:51:58;5.43;;;4.70;;
14923;SDS011;7554;43.600;1.480;2023-06-24T01:54:27;5.73;;;4.57;;
14923;SDS011;7554;43.600;1.480;2023-06-24T01:56:57;5.97;;;4.80;;
14923;SDS011;7554;43.600;1.480;2023-06-24T01:59:27;7.03;;;4.80;;
14923;SDS011;7554;43.600;1.480;2023-06-24T02:01:57;7.70;;;5.30;;
14923;SDS011;7554;43.600;1.480;2023-06-24T02:04:25;7.67;;;5.27;;
14923;SDS011;7554;43.600;1.480;2023-06-24T02:06:56;6.63;;;5.40;;
14923;SDS011;7554;43.600;1.480;2023-06-24T02:09:26;10.07;;;5.50;;
14923;SDS011;7554;43.600;1.480;2023-06-24T02:11:56;6.70;;;5.20;;
14923;SDS011;7554;43.600;1.480;2023-06-24T02:14:25;7.20;;;4.90;;
14923;SDS011;7554;43.600;1.480;2023-06-24T02:16:54;6.63;;;5.13;;
14923;SDS011;7554;43.600;1.480;2023-06-24T02:19:25;6.27;;;4.80;;
14923;SDS011;7554;43.600;1.480;2023-06-24T02:21:56;6.30;;;4.97;;
14923;SDS011;7554;43.600;1.480;2023-06-24T02:24:25;6.10;;;5.30;;
14923;SDS011;7554;43.600;1.480;2023-06-24T02:26:54;7.37;;;5.20;;
14923;SDS011;7554;43.600;1.480;2023-06-24T02:29:24;5.70;;;4.90;;
14923;SDS011;7554;43.600;1.480;2023-06-24T02:31:53;9.83;;;5.30;;
14923;SDS011;7554;43.600;1.480;2023-06-24T02:34:22;8.73;;;5.00;;
14923;SDS011;7554;43.600;1.480;2023-06-24T02:36:50;7.40;;;5.20;;
14923;SDS011;7554;43.600;1.480;2023-06-24T02:39:18;10.07;;;5.03;;
14923;SDS011;7554;43.600;1.480;2023-06-24T02:41:45;6.90;;;5.40;;
14923;SDS011;7554;43.600;1.480;2023-06-24T02:44:14;7.37;;;5.87;;
14923;SDS011;7554;43.600;1.480;2023-06-24T02:46:42;7.37;;;5.93;;
14923;SDS011;7554;43.600;1.480;2023-06-24T02:49:12;8.23;;;6.77;;
14923;SDS011;7554;43.600;1.480;2023-06-24T02:51:44;9.93;;;6.27;;
14923;SDS011;7554;43.600;1.480;2023-06-24T02:54:11;8.57;;;7.60;;
14923;SDS011;7554;43.600;1.480;2023-06-24T02:56:41;9.63;;;7.33;;
14923;SDS011;7554;43.600;1.480;2023-06-24T02:59:10;9.87;;;6.93;;
14923;SDS011;7554;43.600;1.480;2023-06-24T03:01:39;7.80;;;7.00;;
14923;SDS011;7554;43.600;1.480;2023-06-24T03:04:10;7.97;;;6.67;;
14923;SDS011;7554;43.600;1.480;2023-06-24T03:06:38;7.73;;;6.30;;
14923;SDS011;7554;43.600;1.480;2023-06-24T03:09:08;6.90;;;6.20;;
14923;SDS011;7554;43.600;1.480;2023-06-24T03:11:41;11.97;;;5.70;;
14923;SDS011;7554;43.600;1.480;2023-06-24T03:14:09;6.27;;;5.07;;
14923;SDS011;7554;43.600;1.480;2023-06-24T03:16:37;7.87;;;5.53;;
14923;SDS011;7554;43.600;1.480;2023-06-24T03:19:04;7.57;;;5.70;;
14923;SDS011;7554;43.600;1.480;2023-06-24T03:21:32;5.97;;;5.20;;
14923;SDS011;7554;43.600;1.480;2023-06-24T03:23:59;7.00;;;5.47;;
14923;SDS011;7554;43.600;1.480;2023-06-24T03:26:32;6.30;;;5.00;;
14923;SDS011;7554;43.600;1.480;2023-06-24T03:29:00;7.30;;;5.13;;
14923;SDS011;7554;43.600;1.480;2023-06-24T03:31:28;7.97;;;4.80;;
14923;SDS011;7554;43.600;1.480;2023-06-24T03:33:55;8.03;;;4.90;;
14923;SDS011;7554;43.600;1.480;2023-06-24T03:36:23;11.17;;;5.43;;
14923;SDS011;7554;43.600;1.480;2023-06-24T03:38:50;6.07;;;4.90;;
14923;SDS011;7554;43.600;1.480;2023-06-24T03:41:18;7.27;;;4.80;;
14923;SDS011;7554;43.600;1.480;2023-06-24T03:43:46;8.73;;;4.83;;
14923;SDS011;7554;43.600;1.480;2023-06-24T03:46:15;5.27;;;4.37;;
14923;SDS011;7554;43.600;1.480;2023-06-24T03:48:42;5.53;;;4.50;;
14923;SDS011;7554;43.600;1.480;2023-06-24T03:51:10;7.73;;;4.60;;
14923;SDS011;7554;43.600;1.480;2023-06-24T03:53:37;5.77;;;4.73;;
14923;SDS011;7554;43.600;1.480;2023-06-24T03:56:05;6.83;;;5.00;;
14923;SDS011;7554;43.600;1.480;2023-06-24T03:58:32;8.80;;;4.40;;
14923;SDS011;7554;43.600;1.480;2023-06-24T04:01:01;8.50;;;4.53;;
14923;SDS011;7554;43.600;1.480;2023-06-24T04:03:29;8.27;;;4.60;;
14923;SDS011;7554;43.600;1.480;2023-06-24T04:05:57;9.37;;;5.07;;
14923;SDS011;7554;43.600;1.480;2023-06-24T04:08:27;9.00;;;4.63;;
14923;SDS011;7554;43.600;1.480;2023-06-24T04:10:55;5.53;;;4.47;;
14923;SDS011;7554;43.600;1.480;2023-06-24T04:13:24;9.80;;;5.50;;
14923;SDS011;7554;43.600;1.480;2023-06-24T04:15:51;7.13;;;5.10;;
14923;SDS011;7554;43.600;1.480;2023-06-24T04:18:20;6.93;;;5.03;;
14923;SDS011;7554;43.600;1.480;2023-06-24T04:20:47;7.57;;;4.80;;
14923;SDS011;7554;43.600;1.480;2023-06-24T04:23:15;6.07;;;4.93;;
14923;SDS011;7554;43.600;1.480;2023-06-24T04:25:42;5.73;;;4.50;;
14923;SDS011;7554;43.600;1.480;2023-06-24T04:28:09;7.87;;;4.47;;
14923;SDS011;7554;43.600;1.480;2023-06-24T04:30:37;10.57;;;5.30;;
14923;SDS011;7554;43.600;1.480;2023-06-24T04:33:04;5.87;;;4.30;;
14923;SDS011;7554;43.600;1.480;2023-06-24T04:35:33;5.57;;;3.93;;
14923;SDS011;7554;43.600;1.480;2023-06-24T04:38:00;7.57;;;4.13;;
14923;SDS011;7554;43.600;1.480;2023-06-24T04:40:28;6.40;;;4.30;;
14923;SDS011;7554;43.600;1.480;2023-06-24T04:42:55;5.20;;;4.30;;
14923;SDS011;7554;43.600;1.480;2023-06-24T04:45:23;8.53;;;3.83;;
14923;SDS011;7554;43.600;1.480;2023-06-24T04:47:50;10.63;;;4.03;;
14923;SDS011;7554;43.600;1.480;2023-06-24T04:50:18;4.67;;;4.17;;
14923;SDS011;7554;43.600;1.480;2023-06-24T04:52:47;7.00;;;4.10;;
14923;SDS011;7554;43.600;1.480;2023-06-24T04:55:19;5.17;;;3.87;;
14923;SDS011;7554;43.600;1.480;2023-06-24T04:57:47;6.33;;;4.10;;
14923;SDS011;7554;43.600;1.480;2023-06-24T05:00:15;10.60;;;4.30;;
14923;SDS011;7554;43.600;1.480;2023-06-24T05:02:42;7.67;;;4.73;;
14923;SDS011;7554;43.600;1.480;2023-06-24T05:05:10;4.77;;;3.80;;
14923;SDS011;7554;43.600;1.480;2023-06-24T05:07:38;7.87;;;4.20;;
14923;SDS011;7554;43.600;1.480;2023-06-24T05:10:07;5.27;;;3.67;;
14923;SDS011;7554;43.600;1.480;2023-06-24T05:12:34;5.63;;;3.87;;
14923;SDS011;7554;43.600;1.480;2023-06-24T05:15:02;6.22;;;3.95;;
14923;SDS011;7554;43.600;1.480;2023-06-24T05:17:29;5.45;;;3.92;;
14923;SDS011;7554;43.600;1.480;2023-06-24T05:19:57;6.22;;;3.75;;
14923;SDS011;7554;43.600;1.480;2023-06-24T05:22:24;5.78;;;3.95;;
14923;SDS011;7554;43.600;1.480;2023-06-24T05:24:51;6.45;;;4.18;;
14923;SDS011;7554;43.600;1.480;2023-06-24T05:27:20;6.00;;;4.30;;
14923;SDS011;7554;43.600;1.480;2023-06-24T05:29:47;6.05;;;3.60;;
14923;SDS011;7554;43.600;1.480;2023-06-24T05:32:15;6.35;;;4.10;;
14923;SDS011;7554;43.600;1.480;2023-06-24T05:34:45;8.93;;;3.80;;
14923;SDS011;7554;43.600;1.480;2023-06-24T05:37:12;8.68;;;4.78;;
14923;SDS011;7554;43.600;1.480;2023-06-24T05:39:40;8.68;;;3.88;;
14923;SDS011;7554;43.600;1.480;2023-06-24T05:42:07;4.63;;;3.85;;
14923;SDS011;7554;43.600;1.480;2023-06-24T05:44:36;5.97;;;4.43;;
14923;SDS011;7554;43.600;1.480;2023-06-24T05:47:03;6.38;;;3.83;;
14923;SDS011;7554;43.600;1.480;2023-06-24T05:49:31;6.68;;;4.07;;
14923;SDS011;7554;43.600;1.480;2023-06-24T05:51:58;5.28;;;3.63;;
14923;SDS011;7554;43.600;1.480;2023-06-24T05:54:25;5.65;;;4.10;;
14923;SDS011;7554;43.600;1.480;2023-06-24T05:56:53;7.15;;;3.97;;
14923;SDS011;7554;43.600;1.480;2023-06-24T05:59:20;4.35;;;3.72;;
14923;SDS011;7554;43.600;1.480;2023-06-24T06:01:49;5.13;;;4.05;;
14923;SDS011;7554;43.600;1.480;2023-06-24T06:04:16;6.60;;;3.88;;
14923;SDS011;7554;43.600;1.480;2023-06-24T06:06:43;5.65;;;3.50;;
14923;SDS011;7554;43.600;1.480;2023-06-24T06:09:11;4.90;;;3.53;;
14923;SDS011;7554;43.600;1.480;2023-06-24T06:11:38;5.88;;;4.05;;
14923;SDS011;7554;43.600;1.480;2023-06-24T06:14:05;6.05;;;4.05;;
14923;SDS011;7554;43.600;1.480;2023-06-24T06:16:33;6.03;;;3.65;;
14923;SDS011;7554;43.600;1.480;2023-06-24T06:19:01;4.43;;;3.78;;
14923;SDS011;7554;43.600;1.480;2023-06-24T06:21:29;5.45;;;4.00;;
14923;SDS011;7554;43.600;1.480;2023-06-24T06:23:56;4.38;;;3.90;;
14923;SDS011;7554;43.600;1.480;2023-06-24T06:26:23;5.75;;;4.00;;
14923;SDS011;7554;43.600;1.480;2023-06-24T06:28:51;5.47;;;3.35;;
14923;SDS011;7554;43.600;1.480;2023-06-24T06:31:18;5.18;;;3.67;;
14923;SDS011;7554;43.600;1.480;2023-06-24T06:33:46;7.25;;;4.13;;
14923;SDS011;7554;43.600;1.480;2023-06-24T06:36:15;7.63;;;3.78;;
14923;SDS011;7554;43.600;1.480;2023-06-24T06:38:42;4.65;;;3.30;;
14923;SDS011;7554;43.600;1.480;2023-06-24T06:41:10;5.07;;;3.47;;
14923;SDS011;7554;43.600;1.480;2023-06-24T06:43:37;4.75;;;3.60;;
14923;SDS011;7554;43.600;1.480;2023-06-24T06:46:04;5.22;;;3.35;;
14923;SDS011;7554;43.600;1.480;2023-06-24T06:48:32;6.40;;;3.72;;
14923;SDS011;7554;43.600;1.480;2023-06-24T06:50:59;5.07;;;3.45;;
14923;SDS011;7554;43.600;1.480;2023-06-24T06:53:28;6.53;;;4.20;;
14923;SDS011;7554;43.600;1.480;2023-06-24T06:55:55;4.38;;;3.50;;
14923;SDS011;7554;43.600;1.480;2023-06-24T06:58:23;6.78;;;3.88;;
14923;SDS011;7554;43.600;1.480;2023-06-24T07:00:51;4.97;;;3.72;;
14923;SDS011;7554;43.600;1.480;2023-06-24T07:03:18;4.70;;;3.58;;
14923;SDS011;7554;43.600;1.480;2023-06-24T07:05:45;10.32;;;4.07;;
14923;SDS011;7554;43.600;1.480;2023-06-24T07:08:13;4.68;;;3.38;;
14923;SDS011;7554;43.600;1.480;2023-06-24T07:10:41;5.55;;;3.50;;
14923;SDS011;7554;43.600;1.480;2023-06-24T07:13:09;5.53;;;3.50;;
14923;SDS011;7554;43.600;1.480;2023-06-24T07:15:37;7.75;;;3.95;;
14923;SDS011;7554;43.600;1.480;2023-06-24T07:18:04;4.80;;;3.15;;
14923;SDS011;7554;43.600;1.480;2023-06-24T07:20:31;4.70;;;3.42;;
14923;SDS011;7554;43.600;1.480;2023-06-24T07:22:59;6.90;;;3.65;;
14923;SDS011;7554;43.600;1.480;2023-06-24T07:25:26;6.90;;;3.50;;
14923;SDS011;7554;43.600;1.480;2023-06-24T07:27:58;5.63;;;3.50;;
14923;SDS011;7554;43.600;1.480;2023-06-24T07:30:25;5.07;;;3.50;;
14923;SDS011;7554;43.600;1.480;2023-06-24T07:32:53;8.02;;;4.32;;
14923;SDS011;7554;43.600;1.480;2023-06-24T07:35:20;5.85;;;3.58;;
14923;SDS011;7554;43.600;1.480;2023-06-24T07:37:47;4.50;;;3.50;;
14923;SDS011;7554;43.600;1.480;2023-06-24T07:40:14;4.45;;;3.38;;
14923;SDS011;7554;43.600;1.480;2023-06-24T07:42:42;4.85;;;3.20;;
14923;SDS011;7554;43.600;1.480;2023-06-24T07:45:11;4.13;;;3.20;;
14923;SDS011;7554;43.600;1.480;2023-06-24T07:47:38;4.30;;;3.42;;
14923;SDS011;7554;43.600;1.480;2023-06-24T07:50:05;4.00;;;3.60;;
14923;SDS011;7554;43.600;1.480;2023-06-24T07:52:35;4.35;;;3.35;;
14923;SDS011;7554;43.600;1.480;2023-06-24T07:55:03;4.88;;;3.75;;
14923;SDS011;7554;43.600;1.480;2023-06-24T07:57:31;9.82;;;3.53;;
14923;SDS011;7554;43.600;1.480;2023-06-24T07:59:58;5.03;;;3.10;;
14923;SDS011;7554;43.600;1.480;2023-06-24T08:02:27;5.78;;;4.15;;
14923;SDS011;7554;43.600;1.480;2023-06-24T08:04:54;5.88;;;3.40;;
14923;SDS011;7554;43.600;1.480;2023-06-24T08:07:21;4.75;;;3.33;;
14923;SDS011;7554;43.600;1.480;2023-06-24T08:09:49;4.88;;;3.30;;
14923;SDS011;7554;43.600;1.480;2023-06-24T08:12:16;5.03;;;3.40;;
14923;SDS011;7554;43.600;1.480;2023-06-24T08:14:43;3.78;;;3.05;;
14923;SDS011;7554;43.600;1.480;2023-06-24T08:17:11;7.15;;;3.33;;
14923;SDS011;7554;43.600;1.480;2023-06-24T08:19:39;4.47;;;3.40;;
14923;SDS011;7554;43.600;1.480;2023-06-24T08:22:07;5.32;;;3.95;;
14923;SDS011;7554;43.600;1.480;2023-06-24T08:24:34;4.57;;;3.13;;
14923;SDS011;7554;43.600;1.480;2023-06-24T08:27:02;5.25;;;3.20;;
14923;SDS011;7554;43.600;1.480;2023-06-24T08:29:30;3.20;;;2.90;;
14923;SDS011;7554;43.600;1.480;2023-06-24T08:31:57;5.18;;;2.83;;
14923;SDS011;7554;43.600;1.480;2023-06-24T08:34:25;5.82;;;3.20;;
14923;SDS011;7554;43.600;1.480;2023-06-24T08:36:53;4.60;;;3.38;;
14923;SDS011;7554;43.600;1.480;2023-06-24T08:39:21;4.47;;;2.92;;
14923;SDS011;7554;43.600;1.480;2023-06-24T08:41:49;3.40;;;3.10;;
14923;SDS011;7554;43.600;1.480;2023-06-24T08:44:16;5.68;;;3.20;;
14923;SDS011;7554;43.600;1.480;2023-06-24T08:46:43;6.95;;;3.50;;
14923;SDS011;7554;43.600;1.480;2023-06-24T08:49:12;4.50;;;2.55;;
14923;SDS011;7554;43.600;1.480;2023-06-24T08:51:45;5.30;;;2.88;;
14923;SDS011;7554;43.600;1.480;2023-06-24T08:54:17;3.00;;;2.70;;
14923;SDS011;7554;43.600;1.480;2023-06-24T08:56:47;3.58;;;2.95;;
14923;SDS011;7554;43.600;1.480;2023-06-24T08:59:15;3.33;;;2.47;;
14923;SDS011;7554;43.600;1.480;2023-06-24T09:01:44;4.18;;;2.75;;
14923;SDS011;7554;43.600;1.480;2023-06-24T09:04:12;2.85;;;2.58;;
14923;SDS011;7554;43.600;1.480;2023-06-24T09:06:39;4.38;;;2.83;;
14923;SDS011;7554;43.600;1.480;2023-06-24T09:09:18;3.63;;;3.17;;
14923;SDS011;7554;43.600;1.480;2023-06-24T09:11:52;6.68;;;2.90;;
14923;SDS011;7554;43.600;1.480;2023-06-24T09:14:20;4.22;;;3.00;;
14923;SDS011;7554;43.600;1.480;2023-06-24T09:16:51;4.47;;;2.70;;
14923;SDS011;7554;43.600;1.480;2023-06-24T09:19:20;4.43;;;2.47;;
14923;SDS011;7554;43.600;1.480;2023-06-24T09:21:47;4.45;;;2.92;;
14923;SDS011;7554;43.600;1.480;2023-06-24T09:24:18;6.00;;;2.88;;
14923;SDS011;7554;43.600;1.480;2023-06-24T09:26:47;5.85;;;2.80;;
14923;SDS011;7554;43.600;1.480;2023-06-24T09:29:14;3.08;;;2.78;;
14923;SDS011;7554;43.600;1.480;2023-06-24T09:31:48;2.80;;;2.60;;
14923;SDS011;7554;43.600;1.480;2023-06-24T09:34:18;4.22;;;2.83;;
14923;SDS011;7554;43.600;1.480;2023-06-24T09:36:50;3.65;;;2.70;;
14923;SDS011;7554;43.600;1.480;2023-06-24T09:39:20;3.72;;;3.08;;
14923;SDS011;7554;43.600;1.480;2023-06-24T09:41:53;4.65;;;2.97;;
14923;SDS011;7554;43.600;1.480;2023-06-24T09:44:21;5.68;;;2.78;;
14923;SDS011;7554;43.600;1.480;2023-06-24T09:46:48;3.30;;;3.00;;
14923;SDS011;7554;43.600;1.480;2023-06-24T09:49:16;5.38;;;2.95;;
14923;SDS011;7554;43.600;1.480;2023-06-24T09:51:44;5.80;;;3.08;;
14923;SDS011;7554;43.600;1.480;2023-06-24T09:54:22;2.80;;;2.50;;
14923;SDS011;7554;43.600;1.480;2023-06-24T09:56:52;3.17;;;2.85;;
14923;SDS011;7554;43.600;1.480;2023-06-24T09:59:20;3.10;;;2.80;;
14923;SDS011;7554;43.600;1.480;2023-06-24T10:01:51;5.88;;;2.90;;
14923;SDS011;7554;43.600;1.480;2023-06-24T10:04:20;4.60;;;3.40;;
14923;SDS011;7554;43.600;1.480;2023-06-24T10:06:48;5.03;;;3.00;;
14923;SDS011;7554;43.600;1.480;2023-06-24T10:09:16;4.22;;;3.00;;
14923;SDS011;7554;43.600;1.480;2023-06-24T10:11:46;6.55;;;2.80;;
14923;SDS011;7554;43.600;1.480;2023-06-24T10:14:14;3.63;;;2.85;;
14923;SDS011;7554;43.600;1.480;2023-06-24T10:16:42;4.35;;;2.35;;
14923;SDS011;7554;43.600;1.480;2023-06-24T10:19:09;4.45;;;2.88;;
14923;SDS011;7554;43.600;1.480;2023-06-24T10:21:46;3.50;;;2.72;;
14923;SDS011;7554;43.600;1.480;2023-06-24T10:24:28;4.22;;;2.40;;
14923;SDS011;7554;43.600;1.480;2023-06-24T10:27:01;5.80;;;2.50;;
14923;SDS011;7554;43.600;1.480;2023-06-24T10:29:33;3.90;;;2.60;;
14923;SDS011;7554;43.600;1.480;2023-06-24T10:32:03;3.10;;;2.83;;
14923;SDS011;7554;43.600;1.480;2023-06-24T10:34:32;3.33;;;2.78;;
14923;SDS011;7554;43.600;1.480;2023-06-24T10:37:01;5.13;;;3.15;;
14923;SDS011;7554;43.600;1.480;2023-06-24T10:42:27;4.00;;;2.50;;
14923;SDS011;7554;43.600;1.480;2023-06-24T10:44:55;4.07;;;2.90;;
14923;SDS011;7554;43.600;1.480;2023-06-24T10:47:23;5.55;;;2.50;;
14923;SDS011;7554;43.600;1.480;2023-06-24T10:49:52;4.15;;;2.72;;
14923;SDS011;7554;43.600;1.480;2023-06-24T10:52:20;3.22;;;2.72;;
14923;SDS011;7554;43.600;1.480;2023-06-24T10:54:48;3.50;;;2.90;;
14923;SDS011;7554;43.600;1.480;2023-06-24T10:57:20;3.40;;;2.80;;
14923;SDS011;7554;43.600;1.480;2023-06-24T10:59:51;3.45;;;2.50;;
14923;SDS011;7554;43.600;1.480;2023-06-24T11:02:19;2.97;;;2.67;;
14923;SDS011;7554;43.600;1.480;2023-06-24T11:04:48;2.63;;;2.42;;
14923;SDS011;7554;43.600;1.480;2023-06-24T11:07:16;3.78;;;2.80;;
14923;SDS011;7554;43.600;1.480;2023-06-24T11:09:48;3.08;;;2.50;;
14923;SDS011;7554;43.600;1.480;2023-06-24T11:12:16;5.47;;;3.90;;
14923;SDS011;7554;43.600;1.480;2023-06-24T11:14:44;3.95;;;2.92;;
14923;SDS011;7554;43.600;1.480;2023-06-24T11:17:13;3.03;;;2.42;;
14923;SDS011;7554;43.600;1.480;2023-06-24T11:19:40;3.90;;;3.00;;
14923;SDS011;7554;43.600;1.480;2023-06-24T11:22:09;3.25;;;2.65;;
14923;SDS011;7554;43.600;1.480;2023-06-24T11:24:36;3.38;;;2.60;;
14923;SDS011;7554;43.600;1.480;2023-06-24T11:27:04;2.90;;;2.60;;
14923;SDS011;7554;43.600;1.480;2023-06-24T11:29:32;3.45;;;2.38;;
14923;SDS011;7554;43.600;1.480;2023-06-24T11:32:01;5.40;;;2.50;;
14923;SDS011;7554;43.600;1.480;2023-06-24T11:34:30;3.97;;;2.47;;
14923;SDS011;7554;43.600;1.480;2023-06-24T11:36:58;5.65;;;2.50;;
14923;SDS011;7554;43.600;1.480;2023-06-24T11:39:26;5.43;;;2.60;;
14923;SDS011;7554;43.600;1.480;2023-06-24T11:41:54;4.65;;;2.90;;
14923;SDS011;7554;43.600;1.480;2023-06-24T11:44:24;5.32;;;2.70;;
14923;SDS011;7554;43.600;1.480;2023-06-24T11:46:51;3.63;;;2.60;;
14923;SDS011;7554;43.600;1.480;2023-06-24T11:49:19;5.15;;;2.70;;
14923;SDS011;7554;43.600;1.480;2023-06-24T11:51:48;3.75;;;2.67;;
14923;SDS011;7554;43.600;1.480;2023-06-24T11:54:18;3.67;;;2.47;;
14923;SDS011;7554;43.600;1.480;2023-06-24T11:56:49;3.17;;;2.88;;
14923;SDS011;7554;43.600;1.480;2023-06-24T11:59:18;2.70;;;2.50;;
14923;SDS011;7554;43.600;1.480;2023-06-24T12:01:52;3.78;;;2.20;;
14923;SDS011;7554;43.600;1.480;2023-06-24T12:04:20;3.08;;;2.45;;
14923;SDS011;7554;43.600;1.480;2023-06-24T12:06:54;3.90;;;2.30;;
14923;SDS011;7554;43.600;1.480;2023-06-24T12:09:22;3.15;;;2.45;;
14923;SDS011;7554;43.600;1.480;2023-06-24T12:11:50;3.63;;;1.90;;
14923;SDS011;7554;43.600;1.480;2023-06-24T12:14:18;3.65;;;2.50;;
14923;SDS011;7554;43.600;1.480;2023-06-24T12:16:46;3.40;;;2.65;;
14923;SDS011;7554;43.600;1.480;2023-06-24T12:19:13;2.40;;;2.20;;
14923;SDS011;7554;43.600;1.480;2023-06-24T12:21:40;3.47;;;2.72;;
14923;SDS011;7554;43.600;1.480;2023-06-24T12:24:09;16.15;;;3.42;;
14923;SDS011;7554;43.600;1.480;2023-06-24T12:26:38;7.18;;;2.40;;
14923;SDS011;7554;43.600;1.480;2023-06-24T12:29:05;4.72;;;2.40;;
14923;SDS011;7554;43.600;1.480;2023-06-24T12:31:32;2.63;;;2.20;;
14923;SDS011;7554;43.600;1.480;2023-06-24T12:33:59;3.17;;;2.38;;
14923;SDS011;7554;43.600;1.480;2023-06-24T12:36:27;3.88;;;2.60;;
14923;SDS011;7554;43.600;1.480;2023-06-24T12:38:54;4.32;;;2.55;;
14923;SDS011;7554;43.600;1.480;2023-06-24T12:41:23;9.10;;;2.75;;
14923;SDS011;7554;43.600;1.480;2023-06-24T12:43:52;5.75;;;2.60;;
14923;SDS011;7554;43.600;1.480;2023-06-24T12:46:19;3.05;;;2.63;;
14923;SDS011;7554;43.600;1.480;2023-06-24T12:48:46;6.57;;;2.58;;
14923;SDS011;7554;43.600;1.480;2023-06-24T12:51:14;4.60;;;2.83;;
14923;SDS011;7554;43.600;1.480;2023-06-24T12:53:41;3.13;;;2.50;;
14923;SDS011;7554;43.600;1.480;2023-06-24T12:56:08;4.72;;;2.72;;
14923;SDS011;7554;43.600;1.480;2023-06-24T12:58:37;9.75;;;3.17;;
14923;SDS011;7554;43.600;1.480;2023-06-24T13:01:04;2.97;;;2.40;;
14923;SDS011;7554;43.600;1.480;2023-06-24T13:03:32;3.92;;;2.67;;
14923;SDS011;7554;43.600;1.480;2023-06-24T13:05:59;4.28;;;2.70;;
14923;SDS011;7554;43.600;1.480;2023-06-24T13:08:26;6.28;;;2.53;;
14923;SDS011;7554;43.600;1.480;2023-06-24T13:10:53;3.58;;;2.70;;
14923;SDS011;7554;43.600;1.480;2023-06-24T13:13:21;5.78;;;2.58;;
14923;SDS011;7554;43.600;1.480;2023-06-24T13:15:49;44.92;;;4.72;;
14923;SDS011;7554;43.600;1.480;2023-06-24T13:18:17;9.57;;;2.85;;
14923;SDS011;7554;43.600;1.480;2023-06-24T13:20:44;3.65;;;2.85;;
14923;SDS011;7554;43.600;1.480;2023-06-24T13:23:12;2.40;;;2.20;;
14923;SDS011;7554;43.600;1.480;2023-06-24T13:25:39;4.22;;;2.60;;
14923;SDS011;7554;43.600;1.480;2023-06-24T13:28:07;4.53;;;2.65;;
14923;SDS011;7554;43.600;1.480;2023-06-24T13:30:34;2.80;;;2.50;;
14923;SDS011;7554;43.600;1.480;2023-06-24T13:33:02;5.57;;;2.78;;
14923;SDS011;7554;43.600;1.480;2023-06-24T13:35:30;2.88;;;2.30;;
14923;SDS011;7554;43.600;1.480;2023-06-24T13:37:57;5.00;;;2.58;;
14923;SDS011;7554;43.600;1.480;2023-06-24T13:40:24;2.95;;;2.55;;
14923;SDS011;7554;43.600;1.480;2023-06-24T13:42:52;4.20;;;2.50;;
14923;SDS011;7554;43.600;1.480;2023-06-24T13:45:19;4.47;;;2.47;;
14923;SDS011;7554;43.600;1.480;2023-06-24T13:47:46;7.70;;;2.70;;
14923;SDS011;7554;43.600;1.480;2023-06-24T13:50:15;3.50;;;3.10;;
14923;SDS011;7554;43.600;1.480;2023-06-24T13:52:42;5.03;;;2.70;;
14923;SDS011;7554;43.600;1.480;2023-06-24T13:55:10;3.08;;;2.78;;
14923;SDS011;7554;43.600;1.480;2023-06-24T13:57:37;4.47;;;2.35;;
14923;SDS011;7554;43.600;1.480;2023-06-24T14:00:05;3.80;;;2.60;;
14923;SDS011;7554;43.600;1.480;2023-06-24T14:02:34;3.67;;;2.53;;
14923;SDS011;7554;43.600;1.480;2023-06-24T14:05:01;5.10;;;3.17;;
14923;SDS011;7554;43.600;1.480;2023-06-24T14:07:30;3.30;;;2.47;;
14923;SDS011;7554;43.600;1.480;2023-06-24T14:09:59;3.88;;;2.92;;
14923;SDS011;7554;43.600;1.480;2023-06-24T14:12:27;4.30;;;2.97;;
14923;SDS011;7554;43.600;1.480;2023-06-24T14:14:54;5.60;;;3.05;;
14923;SDS011;7554;43.600;1.480;2023-06-24T14:17:21;4.50;;;3.17;;
14923;SDS011;7554;43.600;1.480;2023-06-24T14:19:49;8.05;;;2.83;;
14923;SDS011;7554;43.600;1.480;2023-06-24T14:22:16;4.05;;;2.78;;
14923;SDS011;7554;43.600;1.480;2023-06-24T14:24:45;4.72;;;2.35;;
14923;SDS011;7554;43.600;1.480;2023-06-24T14:27:12;2.75;;;2.33;;
14923;SDS011;7554;43.600;1.480;2023-06-24T14:29:39;5.53;;;2.83;;
14923;SDS011;7554;43.600;1.480;2023-06-24T14:32:07;4.13;;;2.60;;
14923;SDS011;7554;43.600;1.480;2023-06-24T14:34:35;2.72;;;2.40;;
14923;SDS011;7554;43.600;1.480;2023-06-24T14:37:02;5.57;;;2.63;;
14923;SDS011;7554;43.600;1.480;2023-06-24T14:39:30;5.97;;;2.92;;
14923;SDS011;7554;43.600;1.480;2023-06-24T14:41:58;5.30;;;3.20;;
14923;SDS011;7554;43.600;1.480;2023-06-24T14:44:26;3.95;;;2.88;;
14923;SDS011;7554;43.600;1.480;2023-06-24T14:46:53;3.30;;;2.75;;
14923;SDS011;7554;43.600;1.480;2023-06-24T14:49:20;3.03;;;2.70;;
14923;SDS011;7554;43.600;1.480;2023-06-24T14:51:47;3.45;;;2.60;;
14923;SDS011;7554;43.600;1.480;2023-06-24T14:54:15;3.35;;;2.70;;
14923;SDS011;7554;43.600;1.480;2023-06-24T14:56:42;6.10;;;2.70;;
14923;SDS011;7554;43.600;1.480;2023-06-24T14:59:10;13.77;;;3.15;;
14923;SDS011;7554;43.600;1.480;2023-06-24T15:01:38;11.20;;;3.15;;
14923;SDS011;7554;43.600;1.480;2023-06-24T15:04:06;3.10;;;2.65;;
14923;SDS011;7554;43.600;1.480;2023-06-24T15:06:33;2.92;;;2.63;;
14923;SDS011;7554;43.600;1.480;2023-06-24T15:09:00;4.75;;;2.92;;
14923;SDS011;7554;43.600;1.480;2023-06-24T15:11:28;3.00;;;2.70;;
14923;SDS011;7554;43.600;1.480;2023-06-24T15:13:55;3.83;;;2.90;;
14923;SDS011;7554;43.600;1.480;2023-06-24T15:16:24;3.20;;;2.90;;